CPLO2: Copan Lake

Data processed at Wed May 22 2019 23:50


All information presented herein is the property of the government of the United States of America and may be revised or deleted at any time without prior notice.
Dissemination of this information without the expressed written consent of the Public Affairs Office, Tulsa District U.S. Army Corps of Engineers is strictly prohibited.
These data are gathered electronically and, as presented, have not undergone any form of quality control. These data are not guaranteed to be valid or correct.
Go to home page.
Go to station list.
Go to home page.

Upstream stations:

Downstream station:
Previous Day
Next Day
Current Day
    
SHEF ID:       CPLO2     Copan Lake
STATION TYPE:  RESERVOIR
Flood Pool:  Bottom =   710.00, Top =   732.00

               PRECIP ELEVATION   STORAGE    INFLOW   RELEASE  AIR-TEMP  WIND-DIRWIND-SPEED REL-HUMID SOLAR-RAD   VOLTAGE  BAT-LOAD
                   in        ft     ac-ft       cfs       cfs         F       deg       mph         %      W/m2      volt      volt
              Ccp-Rev   Ccp-Rev   Ccp-Rev  Rev-Regi  Rev-Regi   Ccp-Rev   Ccp-Rev   Ccp-Rev   Ccp-Rev   Ccp-Rev   Ccp-Rev   Ccp-Rev
(US/Central)
05/22 00:00      0.00    726.36    152794     19705         7     66.13    160.82      7.58     55.64      0.00     13.06     12.89
05/22 01:00      0.00    726.51    154368     20079         7     64.17    151.76      5.64     63.09      0.00     13.04     12.89
05/22 02:00      0.00    726.66    155943     19571         7     63.14    209.25      2.59     72.28      0.00     13.02     12.89
05/22 03:00      0.00    726.82    157623     19701         7     61.56    178.06      2.06     72.71      0.00     13.00     12.81
05/22 04:00      0.00    726.98    159303     20115         7     59.92    162.97      3.23     75.41      0.00     12.98     12.81
05/22 05:00      0.00    727.13    160932     20529         7     59.09    177.42      2.03     79.02      0.00     12.96     12.81
05/22 06:00      0.00    727.29    162677     20425         7     58.78    209.47      1.36     77.85      0.00     12.94     12.81
05/22 07:00      0.00    727.45    164423     20057         7     57.51    213.26      1.10     80.40     12.65     12.94     12.73
05/22 08:00      0.00    727.60    166060     20341         7     57.78    150.73      2.27     84.36    143.18     13.09     12.65
05/22 09:00      0.00    727.74    167588     19853         7     61.61    231.53      1.44     76.15    201.51     13.35     12.97
05/22 10:00      0.00    727.90    169334     19465         7     63.72    162.10      2.27     72.64    224.01     13.55     13.21
05/22 11:00      0.00    728.04    170878     19889         7     66.63    173.86      4.02     74.07    212.19     13.81     13.29
05/22 12:00      0.00    728.18    172464     19481         7     68.23    169.93      6.88     81.08    186.00     13.50     13.29
05/22 13:00      0.00    728.34    174276     18545         7     71.19    171.89      4.90     80.94    486.37     14.17     12.97
05/22 14:00      0.00    728.46    175635     18919         7     76.42    174.64      8.81     76.48    598.76     14.11     13.37
05/22 15:00      0.00    728.58    176994     18919         7     79.59    174.80     11.27     70.58    484.84     13.69     13.29
05/22 16:00      0.00    728.73    178693     18097         7     80.17    180.58      9.18     68.47    197.84     13.65     13.29
05/22 17:00      0.00    728.87    180279     17948         7     81.93    187.39      6.28     68.50    352.07     13.62     13.21
05/22 18:00      0.00    729.00    181751     18370         7     82.00    198.03      4.27     70.33    144.08     13.62     13.21
05/22 19:00      0.00    729.11    183049     18255         7     74.70    353.40      5.23     82.65     69.36     13.15     13.13
05/22 20:00      0.00    729.24    184582     16987         7     75.45    260.41      2.33     81.40      7.74     13.09     12.97
05/22 21:00      0.00    729.38    186233     16564         7     73.81    293.22      3.77     86.03      0.00     13.06     12.97
05/22 22:00      0.04    729.47    187295     15993         7     70.48    358.14      2.29     94.60      0.00     13.04     12.89
05/22 23:00      0.00    729.58    188593     15993         7     69.60     28.35      2.39     96.72      0.00     13.02     12.89